Time;durP1;ratioP1;P1;durP2;ratioP2;P2;SDS_P1;SDS_P2;PMS_P1;PMS_P2;Temp;Humidity;BMP_temperature;BMP_pressure;BME280_temperature;BME280_humidity;BME280_pressure;Samples;Min_cycle;Max_cycle;Signal;HPM_P1;HPM_P2
2022/09/15 00:02:09;;;;;;;0.00;0.00;;;;;;;16.97;62.91;100928.97;7366574;19;20036;-58
2022/09/15 00:04:34;;;;;;;0.00;0.00;;;;;;;16.95;63.33;100920.28;7366848;19;20374;-58
2022/09/15 00:07:00;;;;;;;0.00;0.00;;;;;;;16.95;63.18;100925.56;7366362;19;20109;-58
2022/09/15 00:09:25;;;;;;;0.00;0.00;;;;;;;16.94;62.96;100923.84;7365746;19;20078;-59
2022/09/15 00:11:51;;;;;;;0.00;0.00;;;;;;;16.91;63.19;100926.63;7368461;19;20011;-56
2022/09/15 00:14:17;;;;;;;0.00;0.00;;;;;;;16.89;63.16;100931.97;7362089;19;20007;-57
2022/09/15 00:16:42;;;;;;;0.00;0.00;;;;;;;16.88;63.24;100935.53;7367077;19;20011;-58
2022/09/15 00:19:08;;;;;;;0.00;0.00;;;;;;;16.86;63.47;100932.94;7366587;19;20022;-58
2022/09/15 00:21:37;;;;;;;0.00;0.00;;;;;;;16.83;63.08;100935.75;7367428;19;20029;-58
2022/09/15 00:24:02;;;;;;;0.00;0.00;;;;;;;16.81;63.33;100931.44;7366863;19;20018;-59
2022/09/15 00:26:29;;;;;;;0.00;0.00;;;;;;;16.80;63.55;100932.38;7366736;19;20066;-58
2022/09/15 00:28:56;;;;;;;0.00;0.00;;;;;;;16.79;63.15;100934.16;7368270;19;21028;-56
2022/09/15 00:31:24;;;;;;;0.00;0.00;;;;;;;16.75;63.73;100929.94;7366782;19;20014;-58
2022/09/15 00:33:52;;;;;;;0.00;0.00;;;;;;;16.73;63.35;100931.81;7366946;19;20033;-58
2022/09/15 00:36:18;;;;;;;0.00;0.00;;;;;;;16.70;63.65;100931.91;7366088;19;20014;-58
2022/09/15 00:38:44;;;;;;;0.00;0.00;;;;;;;16.68;63.73;100927.63;7368898;19;20015;-58
2022/09/15 00:41:12;;;;;;;0.00;0.00;;;;;;;16.66;64.06;100926.81;7367086;19;20014;-58
2022/09/15 00:43:51;;;;;;;0.00;0.00;;;;;;;16.67;63.42;100926.75;7364350;19;20057;-58
2022/09/15 00:46:42;;;;;;;0.00;0.00;;;;;;;16.65;62.91;100933.88;7366674;19;20010;-58
2022/09/15 00:49:27;;;;;;;0.00;0.00;;;;;;;16.60;63.74;100935.88;7368860;19;20010;-57
2022/09/15 00:52:03;;;;;;;0.00;0.00;;;;;;;16.59;63.86;100932.38;7366816;19;20010;-58
2022/09/15 00:54:35;;;;;;;0.00;0.00;;;;;;;16.55;63.74;100933.44;7367172;19;20811;-58
2022/09/15 00:57:03;;;;;;;0.00;0.00;;;;;;;16.54;63.84;100936.13;7367581;19;20696;-58
2022/09/15 00:59:31;;;;;;;0.00;0.00;;;;;;;16.52;63.75;100932.69;7364292;19;20467;-59
2022/09/15 01:02:08;;;;;;;0.00;0.00;;;;;;;16.51;63.20;100941.53;7366755;19;20373;-59
2022/09/15 01:04:34;;;;;;;0.00;0.00;;;;;;;16.46;64.08;100940.88;7367149;19;20006;-59
2022/09/15 01:07:06;;;;;;;0.00;0.00;;;;;;;16.35;63.96;100926.38;7360966;19;20046;-58
2022/09/15 01:09:40;;;;;;;0.00;0.00;;;;;;;16.44;63.67;100929.56;7363163;19;20010;-58
2022/09/15 01:12:06;;;;;;;0.00;0.00;;;;;;;16.39;64.24;100936.81;7364671;19;20006;-58
2022/09/15 01:14:31;;;;;;;0.00;0.00;;;;;;;16.39;64.35;100934.16;7366299;19;20017;-59
2022/09/15 01:17:17;;;;;;;0.00;0.00;;;;;;;16.41;63.54;100934.94;7367650;19;20010;-58
2022/09/15 01:20:05;;;;;;;0.00;0.00;;;;;;;16.39;63.75;100936.81;7365693;19;20025;-58
2022/09/15 01:22:58;;;;;;;0.00;0.00;;;;;;;16.39;63.39;100928.91;7363833;19;20460;-58
2022/09/15 01:25:38;;;;;;;0.00;0.00;;;;;;;16.35;63.58;100929.00;7260542;19;2004550;-57
2022/09/15 01:28:19;;;;;;;0.08;0.08;;;;;;;16.32;64.12;100931.81;7365982;19;20007;-58
2022/09/15 01:31:15;;;;;;;0.00;0.00;;;;;;;16.26;63.07;100916.22;7363425;19;20025;-58
2022/09/15 01:34:08;;;;;;;0.00;0.00;;;;;;;16.30;63.63;100938.91;7258715;19;2004387;-58
2022/09/15 01:36:59;;;;;;;0.00;0.00;;;;;;;16.27;63.83;100939.06;7262011;19;2004767;-58
2022/09/15 01:39:31;;;;;;;0.00;0.00;;;;;;;16.23;64.29;100940.09;7365676;19;20561;-58
2022/09/15 01:42:04;;;;;;;0.00;0.00;;;;;;;16.24;64.07;100943.59;7365532;19;20628;-59
2022/09/15 01:44:32;;;;;;;0.00;0.00;;;;;;;16.22;64.32;100946.28;7367341;19;20002;-58
2022/09/15 01:47:02;;;;;;;0.00;0.00;;;;;;;16.20;64.07;100940.22;7365222;19;20073;-58
2022/09/15 01:49:35;;;;;;;0.00;0.00;;;;;;;16.17;64.83;100943.00;7364262;19;20020;-58
2022/09/15 01:52:01;;;;;;;0.00;0.00;;;;;;;16.13;64.18;100935.28;7365110;19;20346;-58
2022/09/15 01:54:34;;;;;;;0.00;0.00;;;;;;;16.17;63.91;100948.25;7365850;19;20013;-58
2022/09/15 01:57:00;;;;;;;0.00;0.00;;;;;;;16.14;64.28;100937.84;7365406;19;20729;-58
2022/09/15 01:59:26;;;;;;;0.00;0.00;;;;;;;16.12;64.40;100934.44;7354068;19;20715;-59
2022/09/15 02:02:02;;;;;;;0.00;0.00;;;;;;;16.12;64.37;100934.44;7362629;19;20417;-58
2022/09/15 02:04:40;;;;;;;0.00;0.00;;;;;;;16.08;64.54;100932.84;7365892;19;20006;-58
2022/09/15 02:07:15;;;;;;;0.00;0.00;;;;;;;16.08;64.49;100933.69;7364414;19;20555;-59
2022/09/15 02:09:53;;;;;;;0.00;0.00;;;;;;;16.07;64.43;100936.41;7364243;19;20093;-58
2022/09/15 02:12:47;;;;;;;0.00;0.00;;;;;;;16.06;63.95;100937.28;7365987;19;20105;-59
2022/09/15 02:15:17;;;;;;;0.00;0.00;;;;;;;16.04;64.94;100937.38;7260469;19;2004565;-58
2022/09/15 02:17:52;;;;;;;0.00;0.00;;;;;;;16.02;64.88;100938.38;7364523;19;20015;-57
2022/09/15 02:20:40;;;;;;;0.00;0.00;;;;;;;15.90;64.38;100918.63;7362575;19;20027;-58
2022/09/15 02:23:34;;;;;;;0.00;0.00;;;;;;;16.01;64.08;100936.63;7361436;19;20746;-58
2022/09/15 02:26:08;;;;;;;0.00;0.00;;;;;;;15.98;64.48;100936.78;7260595;19;2004363;-58
2022/09/15 02:28:37;;;;;;;0.00;0.00;;;;;;;15.95;64.64;100939.50;7363714;19;20010;-58
2022/09/15 02:31:07;;;;;;;0.00;0.00;;;;;;;15.90;64.86;100936.22;7361456;19;20099;-58
2022/09/15 02:33:39;;;;;;;0.00;0.00;;;;;;;15.80;64.95;100923.41;7364327;19;20018;-58
2022/09/15 02:36:05;;;;;;;0.00;0.00;;;;;;;15.87;65.01;100953.00;7361205;19;20648;-58
2022/09/15 02:38:42;;;;;;;0.00;0.00;;;;;;;15.87;65.01;100955.66;7360525;19;20018;-58
2022/09/15 02:41:08;;;;;;;0.00;0.00;;;;;;;15.82;65.04;100950.56;7361799;19;20396;-58
2022/09/15 02:43:33;;;;;;;0.00;0.00;;;;;;;15.81;65.03;100956.75;7362350;19;20014;-59
2022/09/15 02:45:59;;;;;;;0.00;0.00;;;;;;;15.78;65.68;100950.75;7359595;19;20010;-58
2022/09/15 02:48:24;;;;;;;0.00;0.00;;;;;;;15.76;65.28;100952.56;7360863;19;20011;-57
2022/09/15 02:50:50;;;;;;;0.00;0.00;;;;;;;15.75;65.74;100948.22;7360912;19;20010;-58
2022/09/15 02:53:16;;;;;;;0.00;0.00;;;;;;;15.73;65.38;100950.06;7362066;19;20006;-58
2022/09/15 02:55:41;;;;;;;0.00;0.00;;;;;;;15.64;65.31;100943.38;7360915;19;20888;-58
2022/09/15 02:58:07;;;;;;;0.00;0.00;;;;;;;15.70;65.40;100947.56;7360338;19;20010;-58
2022/09/15 03:00:32;;;;;;;0.00;0.00;;;;;;;15.68;65.64;100939.72;7362485;19;20014;-58
2022/09/15 03:02:57;;;;;;;0.00;0.00;;;;;;;15.65;65.21;100945.09;7363800;19;20355;-58
2022/09/15 03:05:26;;;;;;;0.00;0.00;;;;;;;15.63;64.89;100946.06;7350841;19;20053;-58
2022/09/15 03:07:52;;;;;;;0.00;0.00;;;;;;;15.56;65.48;100945.44;7361904;19;20011;-58
2022/09/15 03:10:17;;;;;;;0.00;0.00;;;;;;;15.50;65.90;100946.53;7363037;19;20010;-58
2022/09/15 03:12:48;;;;;;;0.00;0.00;;;;;;;15.47;65.20;100949.28;7362073;19;20361;-59
2022/09/15 03:15:16;;;;;;;0.00;0.00;;;;;;;15.41;65.96;100956.56;7363963;19;20007;-59
2022/09/15 03:17:43;;;;;;;0.00;0.00;;;;;;;15.36;65.49;100953.25;7354625;19;21731;-58
2022/09/15 03:20:11;;;;;;;0.00;0.00;;;;;;;15.32;65.69;100952.53;7362856;19;20027;-59
2022/09/15 03:22:37;;;;;;;0.00;0.00;;;;;;;15.26;66.02;100951.00;7360334;19;20871;-58
2022/09/15 03:25:04;;;;;;;0.00;0.00;;;;;;;15.21;65.82;100942.41;7359031;19;20045;-58
2022/09/15 03:27:30;;;;;;;0.00;0.00;;;;;;;15.16;65.38;100952.25;7360043;19;20635;-57
2022/09/15 03:29:55;;;;;;;0.00;0.00;;;;;;;15.11;65.75;100951.56;7361949;19;20556;-58
2022/09/15 03:32:21;;;;;;;0.00;0.00;;;;;;;15.06;65.68;100953.50;7362421;19;20078;-58
2022/09/15 03:34:47;;;;;;;0.00;0.00;;;;;;;14.99;66.18;100957.25;7361124;19;20089;-59
2022/09/15 03:37:12;;;;;;;0.00;0.00;;;;;;;14.93;65.76;100952.25;7360037;19;20451;-59
2022/09/15 03:39:38;;;;;;;0.00;0.00;;;;;;;14.87;66.06;100955.09;7361238;19;20011;-57
2022/09/15 03:42:03;;;;;;;0.00;0.00;;;;;;;14.67;66.14;100933.00;7362214;19;20014;-58
2022/09/15 03:44:29;;;;;;;0.00;0.00;;;;;;;14.75;66.43;100957.25;7361531;19;20077;-58
2022/09/15 03:46:54;;;;;;;0.00;0.00;;;;;;;14.73;66.68;100958.22;7362360;19;20014;-58
2022/09/15 03:49:19;;;;;;;0.00;0.00;;;;;;;14.68;66.89;100966.25;7366525;19;20027;-58
2022/09/15 03:51:45;;;;;;;0.00;0.00;;;;;;;14.64;66.48;100963.78;7368971;19;20086;-58
2022/09/15 03:54:10;;;;;;;0.00;0.00;;;;;;;14.57;67.05;100963.16;7368552;19;20081;-58
2022/09/15 03:56:36;;;;;;;0.00;0.00;;;;;;;14.57;66.62;100975.44;7363104;19;20040;-58
2022/09/15 03:59:04;;;;;;;0.00;0.00;;;;;;;14.45;66.90;100966.19;7369468;19;20685;-58
2022/09/15 04:01:30;;;;;;;0.00;0.00;;;;;;;14.50;66.96;100977.44;7362842;19;20048;-58
2022/09/15 04:03:56;;;;;;;0.00;0.00;;;;;;;14.45;66.73;100984.59;7368047;19;20366;-59
2022/09/15 04:06:22;;;;;;;0.00;0.00;;;;;;;14.41;66.79;100988.22;7366925;19;20018;-57
2022/09/15 04:08:48;;;;;;;0.00;0.00;;;;;;;14.37;67.17;100976.94;7369056;19;20023;-58
2022/09/15 04:11:15;;;;;;;0.00;0.00;;;;;;;14.33;66.72;100969.22;7369241;19;20014;-58
2022/09/15 04:13:42;;;;;;;0.00;0.00;;;;;;;14.17;66.93;100963.63;7364989;19;20600;-57
2022/09/15 04:16:13;;;;;;;0.00;0.00;;;;;;;14.27;66.74;100986.91;7371100;19;20116;-59
2022/09/15 04:18:39;;;;;;;0.00;0.00;;;;;;;14.20;67.28;101001.16;7366411;19;20003;-57
2022/09/15 04:21:11;;;;;;;0.00;0.00;;;;;;;14.18;67.06;101002.97;7366389;19;22448;-58
2022/09/15 04:23:37;;;;;;;0.00;0.00;;;;;;;14.15;67.48;101003.09;7365125;19;20018;-59
2022/09/15 04:26:06;;;;;;;0.00;0.00;;;;;;;14.12;67.46;101007.56;7368191;19;21364;-56
2022/09/15 04:28:33;;;;;;;0.00;0.00;;;;;;;14.09;67.44;101013.78;7364788;19;20041;-58
2022/09/15 04:31:03;;;;;;;0.00;0.00;;;;;;;14.07;67.38;101012.09;7366505;19;20540;-58
2022/09/15 04:33:28;;;;;;;0.00;0.00;;;;;;;14.01;67.87;101011.41;7366181;19;20781;-58
2022/09/15 04:36:13;;;;;;;0.00;0.00;;;;;;;14.02;66.51;101017.50;7367641;19;20014;-58
2022/09/15 04:38:39;;;;;;;0.00;0.00;;;;;;;13.96;67.80;101012.44;7366520;19;20014;-59
2022/09/15 04:41:05;;;;;;;0.00;0.00;;;;;;;13.94;67.83;101009.03;7368651;19;20529;-58
2022/09/15 04:43:31;;;;;;;0.00;0.00;;;;;;;13.92;67.79;101011.69;7365087;19;19999;-58
2022/09/15 04:45:57;;;;;;;0.00;0.00;;;;;;;13.91;67.50;101014.38;7366851;19;20029;-58
2022/09/15 04:48:23;;;;;;;0.00;0.00;;;;;;;13.88;67.88;101014.44;7367994;19;20010;-58
2022/09/15 04:50:48;;;;;;;0.00;0.00;;;;;;;13.85;67.88;101004.91;7365746;19;20042;-59
2022/09/15 04:53:14;;;;;;;0.00;0.00;;;;;;;13.84;67.76;101012.81;7366577;19;20010;-58
2022/09/15 04:55:40;;;;;;;0.00;0.00;;;;;;;13.82;67.64;101009.41;7364447;19;20035;-58
2022/09/15 04:58:06;;;;;;;0.00;0.00;;;;;;;13.79;67.88;101012.09;7367277;19;20370;-58
2022/09/15 05:00:34;;;;;;;0.00;0.00;;;;;;;13.75;68.00;101017.47;7362552;19;20014;-58
2022/09/15 05:02:59;;;;;;;0.00;0.00;;;;;;;13.64;67.95;101010.84;7366573;19;20014;-58
2022/09/15 05:05:25;;;;;;;0.00;0.00;;;;;;;13.66;67.89;101019.50;7366633;19;20443;-57
2022/09/15 05:07:51;;;;;;;0.00;0.00;;;;;;;13.66;68.32;101025.63;7367068;19;20863;-58
2022/09/15 05:10:18;;;;;;;0.00;0.00;;;;;;;13.65;67.90;101023.03;7366028;19;20010;-58
2022/09/15 05:12:43;;;;;;;0.00;0.00;;;;;;;13.59;68.02;101013.59;7368182;19;20014;-57
2022/09/15 05:15:09;;;;;;;0.00;0.00;;;;;;;13.61;68.07;101022.28;7364599;19;20002;-58
2022/09/15 05:17:35;;;;;;;0.00;0.00;;;;;;;13.59;68.25;101021.47;7367079;19;20003;-58
2022/09/15 05:20:00;;;;;;;0.00;0.00;;;;;;;13.58;68.12;101026.75;7364909;19;20534;-58
2022/09/15 05:22:27;;;;;;;0.00;0.00;;;;;;;13.56;68.39;101034.66;7366595;19;20077;-59
2022/09/15 05:24:53;;;;;;;0.00;0.00;;;;;;;13.54;68.76;101025.13;7363611;19;20047;-58
2022/09/15 05:27:19;;;;;;;0.00;0.00;;;;;;;13.53;68.47;101024.25;7367054;19;20015;-57
2022/09/15 05:29:44;;;;;;;0.00;0.00;;;;;;;13.54;68.89;101026.00;7366152;19;20013;-58
2022/09/15 05:32:09;;;;;;;0.00;0.00;;;;;;;13.55;68.89;101029.47;7366319;19;20010;-57
2022/09/15 05:34:35;;;;;;;0.00;0.00;;;;;;;13.57;68.93;101030.28;7366540;19;21549;-58
2022/09/15 05:37:01;;;;;;;0.00;0.00;;;;;;;13.58;68.82;101026.75;7362394;19;20014;-58
2022/09/15 05:39:26;;;;;;;0.00;0.00;;;;;;;13.60;68.85;101025.81;7366625;19;20006;-58
2022/09/15 05:41:52;;;;;;;0.00;0.00;;;;;;;13.63;68.84;101030.09;7365584;19;20036;-58
2022/09/15 05:44:17;;;;;;;0.00;0.00;;;;;;;13.65;68.72;101029.16;7365995;19;20010;-58
2022/09/15 05:46:43;;;;;;;0.00;0.00;;;;;;;13.68;68.65;101030.81;7365750;19;20032;-59
2022/09/15 05:49:08;;;;;;;0.00;0.00;;;;;;;13.70;68.45;101024.63;7364268;19;20344;-58
2022/09/15 05:51:34;;;;;;;0.10;0.10;;;;;;;13.74;68.51;101026.25;7363577;19;20002;-58
2022/09/15 05:54:00;;;;;;;0.00;0.00;;;;;;;13.77;68.59;101034.00;7363950;19;20014;-58
2022/09/15 05:56:25;;;;;;;0.00;0.00;;;;;;;13.80;68.65;101029.59;7363862;19;20464;-58
2022/09/15 05:58:51;;;;;;;0.00;0.00;;;;;;;13.82;68.74;101035.66;7358082;19;20035;-58
2022/09/15 06:01:18;;;;;;;0.00;0.00;;;;;;;13.85;68.86;101039.03;7364835;19;20003;-58
2022/09/15 06:03:43;;;;;;;0.07;0.07;;;;;;;13.88;68.93;101038.06;7364331;19;20014;-58
2022/09/15 06:06:09;;;;;;;0.00;0.00;;;;;;;13.90;68.74;101034.50;7360951;19;20031;-58
2022/09/15 06:08:47;;;;;;;0.00;0.00;;;;;;;13.96;68.18;101044.81;7360753;19;20028;-58
2022/09/15 06:11:19;;;;;;;0.00;0.00;;;;;;;13.98;68.11;101042.13;7360961;19;20020;-58
2022/09/15 06:13:46;;;;;;;0.00;0.00;;;;;;;13.98;68.76;101047.38;7359565;19;20014;-59
2022/09/15 06:16:14;;;;;;;0.00;0.00;;;;;;;14.01;68.52;101045.53;7363064;19;20491;-58
2022/09/15 06:18:40;;;;;;;0.00;0.00;;;;;;;14.03;68.23;101045.47;7364749;19;20014;-58
2022/09/15 06:21:11;;;;;;;0.00;0.00;;;;;;;14.08;68.02;101056.69;7359501;19;20022;-58
2022/09/15 06:23:37;;;;;;;0.00;0.00;;;;;;;14.08;68.70;101064.56;7364026;19;20037;-58
2022/09/15 06:26:05;;;;;;;0.00;0.00;;;;;;;14.10;68.48;101062.78;7362746;19;20104;-59
2022/09/15 06:28:30;;;;;;;0.05;0.05;;;;;;;14.06;68.40;101055.03;7362218;19;20027;-58
2022/09/15 06:30:56;;;;;;;0.00;0.00;;;;;;;14.16;68.15;101074.84;7361764;19;20085;-58
2022/09/15 06:33:21;;;;;;;0.00;0.00;;;;;;;14.19;68.54;101073.00;7363249;19;20747;-58
2022/09/15 06:35:46;;;;;;;0.00;0.00;;;;;;;14.22;68.21;101074.66;7363567;19;20103;-58
2022/09/15 06:38:12;;;;;;;0.00;0.00;;;;;;;14.24;68.03;101071.09;7351078;19;21364;-59
2022/09/15 06:40:37;;;;;;;0.00;0.00;;;;;;;14.30;68.32;101074.41;7361514;19;20014;-58
2022/09/15 06:43:03;;;;;;;0.10;0.10;;;;;;;14.32;68.18;101072.59;7357724;19;20018;-58
2022/09/15 06:45:29;;;;;;;0.00;0.00;;;;;;;14.23;68.53;101058.81;7358381;19;20022;-58
2022/09/15 06:47:54;;;;;;;0.00;0.00;;;;;;;14.39;68.03;101084.59;7361616;19;20036;-57
2022/09/15 06:50:20;;;;;;;0.00;0.00;;;;;;;14.42;68.01;101076.63;7362948;19;20015;-58
2022/09/15 06:52:46;;;;;;;0.00;0.00;;;;;;;14.44;68.39;101080.06;7362030;19;20028;-57
2022/09/15 06:55:11;;;;;;;0.00;0.00;;;;;;;14.49;68.35;101086.91;7363266;19;20018;-59
2022/09/15 06:57:36;;;;;;;0.00;0.00;;;;;;;14.49;67.84;101080.81;7349055;19;20036;-58
2022/09/15 07:00:05;;;;;;;0.00;0.00;;;;;;;14.55;68.26;101085.88;7348564;19;20518;-58
2022/09/15 07:02:30;;;;;;;0.00;0.00;;;;;;;14.58;68.08;101085.75;7352657;19;20377;-58
2022/09/15 07:04:56;;;;;;;0.00;0.00;;;;;;;14.59;68.25;101082.22;7352979;19;20018;-59
2022/09/15 07:07:21;;;;;;;0.00;0.00;;;;;;;14.63;67.63;101083.84;7354678;19;20047;-58
2022/09/15 07:09:47;;;;;;;0.00;0.00;;;;;;;14.67;67.66;101085.47;7355304;19;21632;-58
2022/09/15 07:12:12;;;;;;;0.00;0.00;;;;;;;14.70;67.65;101088.00;7353491;19;20036;-57
2022/09/15 07:14:38;;;;;;;0.00;0.00;;;;;;;14.75;67.50;101075.56;7354995;19;20036;-57
2022/09/15 07:17:03;;;;;;;0.00;0.00;;;;;;;14.78;67.63;101083.31;7355051;19;20002;-58
2022/09/15 07:19:28;;;;;;;0.00;0.00;;;;;;;14.78;67.64;101072.81;7352805;19;20011;-58
2022/09/15 07:21:54;;;;;;;0.00;0.00;;;;;;;14.88;67.40;101083.00;7356715;19;20021;-58
2022/09/15 07:24:19;;;;;;;0.00;0.00;;;;;;;14.92;67.24;101079.38;7364020;19;20010;-58
2022/09/15 07:26:45;;;;;;;0.00;0.00;;;;;;;14.97;67.08;101087.97;7364338;19;20036;-58
2022/09/15 07:29:11;;;;;;;0.00;0.00;;;;;;;15.02;67.37;101086.03;7363647;19;20082;-59
2022/09/15 07:31:37;;;;;;;0.00;0.00;;;;;;;15.05;66.91;101085.91;7364229;19;20490;-58
2022/09/15 07:34:03;;;;;;;0.10;0.10;;;;;;;15.15;66.46;101094.34;7364207;19;20007;-58
2022/09/15 07:36:29;;;;;;;0.00;0.00;;;;;;;15.19;66.31;101091.53;7364877;19;20018;-58
2022/09/15 07:38:55;;;;;;;0.00;0.00;;;;;;;15.26;66.74;101094.84;7362862;19;20017;-58
2022/09/15 07:41:23;;;;;;;0.00;0.00;;;;;;;15.32;66.35;101094.63;7366679;19;20711;-58
2022/09/15 07:43:51;;;;;;;0.00;0.00;;;;;;;15.37;65.98;101097.94;7365352;19;20018;-58
2022/09/15 07:46:18;;;;;;;0.00;0.00;;;;;;;15.38;65.87;101089.13;7365685;19;20002;-58
2022/09/15 07:48:46;;;;;;;0.00;0.00;;;;;;;15.52;65.67;101096.53;7367474;19;20094;-58
2022/09/15 07:51:13;;;;;;;0.00;0.00;;;;;;;15.55;65.52;101101.66;7366778;19;20079;-58
2022/09/15 07:53:39;;;;;;;0.00;0.00;;;;;;;15.59;65.18;101111.16;7369339;19;20072;-58
2022/09/15 07:56:05;;;;;;;0.00;0.00;;;;;;;15.63;65.02;101110.16;7366916;19;20637;-58
2022/09/15 07:58:32;;;;;;;0.08;0.08;;;;;;;15.69;64.73;101112.56;7367535;19;20014;-59
2022/09/15 08:01:13;;;;;;;0.00;0.00;;;;;;;15.76;64.79;101115.81;7365919;19;20006;-58
2022/09/15 08:03:41;;;;;;;0.00;0.00;;;;;;;15.73;63.93;101111.53;7363159;19;20018;-58
2022/09/15 08:06:07;;;;;;;0.00;0.00;;;;;;;15.70;64.09;101111.66;7364909;19;20514;-57
2022/09/15 08:08:33;;;;;;;0.00;0.00;;;;;;;15.77;64.05;101123.69;7365115;19;20447;-58
2022/09/15 08:10:58;;;;;;;0.00;0.00;;;;;;;15.78;64.43;101114.88;7367094;19;20003;-58
2022/09/15 08:13:24;;;;;;;0.00;0.00;;;;;;;15.81;64.00;101114.75;7365883;19;20028;-58
2022/09/15 08:15:50;;;;;;;0.00;0.00;;;;;;;15.87;64.37;101129.47;7359454;19;20014;-58
2022/09/15 08:18:16;;;;;;;0.00;0.00;;;;;;;15.94;64.31;101125.66;7364593;19;20081;-57
2022/09/15 08:20:42;;;;;;;0.00;0.00;;;;;;;16.06;64.23;101129.59;7366835;19;20066;-58
2022/09/15 08:23:09;;;;;;;0.00;0.00;;;;;;;16.16;63.66;101141.50;7367963;19;20039;-58
2022/09/15 08:25:35;;;;;;;0.00;0.00;;;;;;;16.25;63.77;101130.59;7366505;19;20081;-58
2022/09/15 08:28:01;;;;;;;0.00;0.00;;;;;;;16.33;63.12;101131.19;7367451;19;20102;-57
2022/09/15 08:30:26;;;;;;;0.00;0.00;;;;;;;16.34;63.60;101122.34;7366978;19;20418;-58
2022/09/15 08:32:52;;;;;;;0.08;0.08;;;;;;;16.45;63.47;101126.31;7368511;19;20091;-58
2022/09/15 08:35:18;;;;;;;0.00;0.00;;;;;;;16.55;62.63;101123.25;7364205;19;20014;-58
2022/09/15 08:37:44;;;;;;;0.00;0.00;;;;;;;16.72;62.76;101141.03;7359687;19;20017;-58
2022/09/15 08:40:20;;;;;;;0.03;0.03;;;;;;;16.85;62.88;101144.91;7365339;19;20092;-58
2022/09/15 08:42:49;;;;;;;0.00;0.00;;;;;;;16.88;62.27;101153.59;7365980;19;20475;-58
2022/09/15 08:45:24;;;;;;;0.00;0.00;;;;;;;16.98;62.55;101152.28;7365971;19;20006;-57
2022/09/15 08:47:57;;;;;;;0.00;0.00;;;;;;;17.04;62.20;101163.47;7368663;19;20018;-58
2022/09/15 08:50:33;;;;;;;0.00;0.00;;;;;;;17.15;61.93;101159.50;7366417;19;20369;-59
2022/09/15 08:53:08;;;;;;;0.00;0.00;;;;;;;17.13;62.21;101156.91;7368143;19;20006;-58
2022/09/15 08:55:47;;;;;;;0.00;0.00;;;;;;;17.30;61.86;101162.34;7366355;19;20547;-58
2022/09/15 08:58:18;;;;;;;0.00;0.00;;;;;;;17.38;61.51;101162.00;7368821;19;20010;-58
2022/09/15 09:00:51;;;;;;;0.00;0.00;;;;;;;17.47;60.97;101160.75;7365638;19;20014;-59
2022/09/15 09:03:53;;;;;;;0.03;0.03;;;;;;;17.58;61.69;101158.47;7367868;19;20006;-58
2022/09/15 09:06:21;;;;;;;0.00;0.00;;;;;;;17.62;60.42;101165.34;7264419;19;2004318;-58
2022/09/15 09:08:54;;;;;;;0.00;0.00;;;;;;;17.72;59.47;101161.38;7366192;19;20027;-57
2022/09/15 09:11:38;;;;;;;0.00;0.00;;;;;;;17.93;61.07;101169.28;7366361;19;20098;-58
2022/09/15 09:14:33;;;;;;;0.10;0.10;;;;;;;18.04;60.67;101169.63;7363810;19;20091;-58
2022/09/15 09:17:57;;;;;;;0.00;0.00;;;;;;;18.18;60.61;101169.84;7263269;19;2004509;-58
2022/09/15 09:20:44;;;;;;;0.00;0.00;;;;;;;18.28;60.37;101175.56;7158248;19;2005193;-57
2022/09/15 09:23:14;;;;;;;0.00;0.00;;;;;;;18.31;58.43;101171.00;7358689;19;20086;-57
2022/09/15 09:25:41;;;;;;;0.00;0.00;;;;;;;18.37;57.32;101165.41;7364242;19;20006;-58
2022/09/15 09:28:26;;;;;;;0.00;0.00;;;;;;;18.49;58.54;101169.25;7363092;19;20448;-56
2022/09/15 09:30:53;;;;;;;0.00;0.00;;;;;;;18.56;56.07;101175.97;7364351;19;20329;-58
2022/09/15 09:34:05;;;;;;;0.00;0.00;;;;;;;18.76;58.62;101172.41;7365323;19;20027;-57
2022/09/15 09:36:30;;;;;;;0.00;0.00;;;;;;;18.84;56.16;101186.09;7262995;19;2004474;-58
2022/09/15 09:38:56;;;;;;;0.10;0.10;;;;;;;18.96;56.39;101181.09;7363796;19;20060;-57
2022/09/15 09:41:34;;;;;;;0.00;0.00;;;;;;;19.13;56.88;101187.28;7365135;19;20010;-58
2022/09/15 09:44:01;;;;;;;0.00;0.00;;;;;;;19.23;56.03;101181.53;7365757;19;20515;-57
2022/09/15 09:46:27;;;;;;;0.08;0.08;;;;;;;19.41;55.03;101176.16;7364117;19;20685;-57
2022/09/15 09:49:23;;;;;;;0.00;0.00;;;;;;;19.74;57.49;101183.28;7365488;19;20015;-56
2022/09/15 09:52:02;;;;;;;0.00;0.00;;;;;;;19.82;54.06;101170.50;7261557;19;2004453;-58
2022/09/15 09:54:29;;;;;;;0.03;0.03;;;;;;;20.03;54.09;101180.88;7365633;19;20032;-58
2022/09/15 09:57:15;;;;;;;0.00;0.00;;;;;;;20.19;53.11;101179.94;7364154;19;20590;-58
2022/09/15 09:59:43;;;;;;;0.10;0.10;;;;;;;20.37;53.48;101180.69;7365023;19;20048;-58
2022/09/15 10:02:20;;;;;;;0.00;0.00;;;;;;;20.56;55.02;101183.19;7363292;19;20043;-58
2022/09/15 10:04:54;;;;;;;0.10;0.10;;;;;;;20.66;53.13;101175.56;7364594;19;20018;-58
2022/09/15 10:07:25;;;;;;;0.00;0.00;;;;;;;20.74;51.98;101176.00;7364814;19;20011;-58
2022/09/15 10:09:59;;;;;;;0.00;0.00;;;;;;;20.86;52.58;101180.59;7366027;19;20022;-57
2022/09/15 10:12:28;;;;;;;0.03;0.03;;;;;;;20.89;51.43;101175.13;7362782;19;20872;-58
2022/09/15 10:14:57;;;;;;;0.10;0.10;;;;;;;20.94;50.54;101170.41;7364111;19;20722;-58
2022/09/15 10:17:27;;;;;;;0.00;0.00;;;;;;;21.07;51.82;101177.63;7364372;19;20016;-58
2022/09/15 10:19:57;;;;;;;0.00;0.00;;;;;;;21.27;51.20;101174.63;7363993;19;20030;-57
2022/09/15 10:22:25;;;;;;;0.00;0.00;;;;;;;21.39;49.73;101165.97;7365114;19;20014;-58
2022/09/15 10:24:50;;;;;;;0.00;0.00;;;;;;;21.47;48.14;101166.34;7364829;19;20081;-58
2022/09/15 10:27:29;;;;;;;0.00;0.00;;;;;;;21.60;49.94;101176.25;7364394;19;20111;-58
2022/09/15 10:29:57;;;;;;;0.00;0.00;;;;;;;21.53;48.62;101165.13;7365223;19;20014;-58
2022/09/15 10:32:30;;;;;;;0.10;0.10;;;;;;;21.72;49.82;101180.81;7364931;19;20467;-58
2022/09/15 10:35:09;;;;;;;0.10;0.10;;;;;;;21.74;48.63;101184.22;7362100;19;20025;-58
2022/09/15 10:38:12;;;;;;;0.03;0.03;;;;;;;21.76;51.42;101182.34;7364926;19;20027;-57
2022/09/15 10:41:14;;;;;;;0.00;0.00;;;;;;;21.71;48.50;101181.75;7262257;19;2004543;-58
2022/09/15 10:43:58;;;;;;;0.00;0.00;;;;;;;21.71;50.64;101181.75;7257222;19;2004195;-58
2022/09/15 10:46:56;;;;;;;0.03;0.03;;;;;;;21.74;49.70;101184.22;7363499;19;20043;-58
2022/09/15 10:49:48;;;;;;;0.10;0.10;;;;;;;21.85;49.27;101180.91;7262302;19;2004082;-58
2022/09/15 10:52:34;;;;;;;0.05;0.05;;;;;;;22.48;51.72;101183.97;7363434;19;20007;-58
2022/09/15 10:55:25;;;;;;;0.10;0.10;;;;;;;22.95;49.92;101181.81;7363047;19;20021;-57
2022/09/15 10:58:27;;;;;;;0.05;0.05;;;;;;;23.35;50.08;101187.13;7364977;19;20344;-58
2022/09/15 11:01:17;;;;;;;0.00;0.00;;;;;;;23.48;48.39;101183.50;7268104;19;2004273;-58
2022/09/15 11:03:42;;;;;;;0.00;0.00;;;;;;;23.40;44.79;101193.84;7265713;19;2004621;-58
2022/09/15 11:06:22;;;;;;;0.00;0.00;;;;;;;23.34;43.80;101196.94;7366051;19;20010;-59
2022/09/15 11:09:09;;;;;;;0.00;0.00;;;;;;;23.24;46.92;101185.19;7367992;19;20007;-58
2022/09/15 11:11:43;;;;;;;0.00;0.00;;;;;;;23.11;45.09;101202.94;7369081;19;20035;-58
2022/09/15 11:14:33;;;;;;;0.00;0.00;;;;;;;22.95;47.85;101205.78;7368327;19;20650;-59
2022/09/15 11:17:25;;;;;;;0.00;0.00;;;;;;;22.72;47.94;101200.16;7368574;19;20010;-58
2022/09/15 11:20:02;;;;;;;0.00;0.00;;;;;;;22.50;46.14;101199.81;7264470;19;2006178;-58
2022/09/15 11:22:43;;;;;;;0.10;0.10;;;;;;;22.33;46.96;101203.59;7370398;19;20479;-59
2022/09/15 11:25:24;;;;;;;0.00;0.00;;;;;;;22.19;47.22;101201.78;7369047;19;20002;-59
2022/09/15 11:28:29;;;;;;;0.00;0.00;;;;;;;22.08;48.28;101198.06;7369244;19;20002;-59
2022/09/15 11:31:08;;;;;;;0.10;0.10;;;;;;;21.94;46.77;101207.75;7263374;19;2004287;-59
2022/09/15 11:33:47;;;;;;;0.00;0.00;;;;;;;21.99;48.04;101202.16;7369335;19;20824;-58
2022/09/15 11:36:17;;;;;;;0.10;0.10;;;;;;;22.00;46.98;101195.91;7370122;19;20026;-58
2022/09/15 11:38:58;;;;;;;0.00;0.00;;;;;;;22.09;48.08;101200.63;7364889;19;20037;-58
2022/09/15 11:41:37;;;;;;;0.10;0.10;;;;;;;22.16;48.16;101201.16;7363434;19;20003;-56
2022/09/15 11:44:23;;;;;;;0.00;0.00;;;;;;;22.20;48.26;101197.31;7365698;19;20022;-58